createdAt,value
2023-02-11T00:00:39.897Z,3.40
2023-02-11T00:03:06.976Z,3.40
2023-02-11T00:05:34.088Z,3.39
2023-02-11T00:08:00.831Z,3.39
2023-02-11T00:10:27.560Z,3.40
2023-02-11T00:12:54.351Z,3.39
2023-02-11T00:15:23.069Z,3.41
2023-02-11T00:17:49.781Z,3.43
2023-02-11T00:20:16.612Z,3.45
2023-02-11T00:22:43.419Z,3.46
2023-02-11T00:25:10.272Z,3.49
2023-02-11T00:27:37.198Z,3.51
2023-02-11T00:30:04.476Z,3.54
2023-02-11T00:32:32.720Z,3.57
2023-02-11T00:34:59.447Z,3.60
2023-02-11T00:37:26.158Z,3.64
2023-02-11T00:39:52.894Z,3.67
2023-02-11T00:42:19.596Z,3.70
2023-02-11T00:44:46.288Z,3.73
2023-02-11T00:47:12.972Z,3.75
2023-02-11T00:49:41.034Z,3.78
2023-02-11T00:52:07.699Z,3.80
2023-02-11T00:54:34.536Z,3.82
2023-02-11T00:57:01.261Z,3.85
2023-02-11T00:59:28.254Z,3.88
2023-02-11T01:01:55.005Z,3.89
2023-02-11T01:04:21.742Z,3.91
2023-02-11T01:06:49.811Z,3.93
2023-02-11T01:09:16.522Z,3.94
2023-02-11T01:11:43.477Z,3.94
2023-02-11T01:14:10.102Z,3.95
2023-02-11T01:16:36.845Z,3.98
2023-02-11T01:19:03.715Z,3.98
2023-02-11T01:21:30.523Z,3.99
2023-02-11T01:23:58.540Z,3.99
2023-02-11T01:26:25.256Z,4.00
2023-02-11T01:28:51.981Z,4.01
2023-02-11T01:31:18.743Z,4.01
2023-02-11T01:33:45.664Z,4.02
2023-02-11T01:36:12.669Z,4.03
2023-02-11T01:38:39.463Z,4.04
2023-02-11T01:41:10.933Z,4.05
2023-02-11T01:43:39.658Z,4.05
2023-02-11T01:46:31.738Z,4.06
2023-02-11T01:49:04.651Z,4.08
2023-02-11T01:51:36.124Z,4.09
2023-02-11T01:54:04.455Z,4.09
2023-02-11T01:56:35.210Z,4.09
2023-02-11T01:59:07.623Z,4.11
2023-02-11T02:01:35.296Z,4.10
2023-02-11T02:04:05.020Z,4.09
2023-02-11T02:06:35.568Z,4.10
2023-02-11T02:09:06.746Z,4.12
2023-02-11T02:11:35.069Z,4.13
2023-02-11T02:14:01.863Z,4.12
2023-02-11T02:16:31.949Z,4.14
2023-02-11T02:19:22.519Z,4.15
2023-02-11T02:22:15.091Z,4.17
2023-02-11T02:24:59.465Z,4.17
2023-02-11T02:27:53.659Z,4.19
2023-02-11T02:30:46.340Z,4.18
2023-02-11T02:33:33.796Z,4.19
2023-02-11T02:36:09.331Z,4.21
2023-02-11T02:38:41.616Z,4.20
2023-02-11T02:41:11.749Z,4.20
2023-02-11T02:43:43.111Z,4.21
2023-02-11T02:46:14.861Z,4.22
2023-02-11T02:48:43.492Z,4.22
2023-02-11T02:51:27.721Z,4.23
2023-02-11T02:54:07.851Z,4.23
2023-02-11T02:56:44.643Z,4.25
2023-02-11T02:59:33.015Z,4.23
2023-02-11T03:02:08.803Z,4.24
2023-02-11T03:04:43.509Z,4.27
2023-02-11T03:07:20.734Z,4.28
2023-02-11T03:09:57.614Z,4.30
2023-02-11T03:12:27.651Z,4.30
2023-02-11T03:14:54.527Z,4.31
2023-02-11T03:17:23.615Z,4.31
2023-02-11T03:19:52.044Z,4.31
2023-02-11T03:22:22.965Z,4.32
2023-02-11T03:24:50.004Z,4.31
2023-02-11T03:27:21.932Z,4.32
2023-02-11T03:29:54.589Z,4.33
2023-02-11T03:32:27.147Z,4.35
2023-02-11T03:34:59.163Z,4.37
2023-02-11T03:37:30.699Z,4.37
2023-02-11T03:40:01.736Z,4.38
2023-02-11T03:42:33.037Z,4.39
2023-02-11T03:45:04.505Z,4.39
2023-02-11T03:47:35.868Z,4.39
2023-02-11T03:50:07.669Z,4.39
2023-02-11T03:52:35.574Z,4.40
2023-02-11T03:55:05.921Z,4.41
2023-02-11T03:57:32.701Z,4.42
2023-02-11T03:59:59.646Z,4.43
2023-02-11T04:02:31.397Z,4.44
2023-02-11T04:04:58.372Z,4.45
2023-02-11T04:07:26.848Z,4.46
2023-02-11T04:09:53.862Z,4.48
2023-02-11T04:12:20.897Z,4.47
2023-02-11T04:14:47.579Z,4.50
2023-02-11T04:17:14.494Z,4.50
2023-02-11T04:19:41.362Z,4.52
2023-02-11T04:22:08.499Z,4.52
2023-02-11T04:24:36.702Z,4.54
2023-02-11T04:27:04.465Z,4.54
2023-02-11T04:29:31.202Z,4.56
2023-02-11T04:31:58.266Z,4.57
2023-02-11T04:34:25.070Z,4.57
2023-02-11T04:36:51.788Z,4.60
2023-02-11T04:39:18.620Z,4.60
2023-02-11T04:41:46.742Z,4.62
2023-02-11T04:44:13.873Z,4.62
2023-02-11T04:46:40.824Z,4.62
2023-02-11T04:49:07.595Z,4.63
2023-02-11T04:51:34.292Z,4.64
2023-02-11T04:54:01.013Z,4.64
2023-02-11T04:56:27.649Z,4.65
2023-02-11T04:58:55.746Z,4.64
2023-02-11T05:01:22.961Z,4.65
2023-02-11T05:03:49.831Z,4.65
2023-02-11T05:06:17.127Z,4.67
2023-02-11T05:08:43.839Z,4.66
2023-02-11T05:11:16.115Z,4.68
2023-02-11T05:13:42.874Z,4.68
2023-02-11T05:16:11.302Z,4.69
2023-02-11T05:18:38.345Z,4.67
2023-02-11T05:21:06.867Z,4.68
2023-02-11T05:23:33.752Z,4.67
2023-02-11T05:26:00.582Z,4.67
2023-02-11T05:28:27.318Z,4.67
2023-02-11T05:30:54.127Z,4.68
2023-02-11T05:33:22.792Z,4.69
2023-02-11T05:35:49.905Z,4.68
2023-02-11T05:38:17.350Z,4.68
2023-02-11T05:40:44.913Z,4.69
2023-02-11T05:43:11.706Z,4.69
2023-02-11T05:45:38.417Z,4.69
2023-02-11T05:48:05.598Z,4.70
2023-02-11T05:50:33.688Z,4.69
2023-02-11T05:53:00.467Z,4.70
2023-02-11T05:55:27.567Z,4.71
2023-02-11T05:57:54.215Z,4.71
2023-02-11T06:00:20.992Z,4.72
2023-02-11T06:02:47.894Z,4.73
2023-02-11T06:05:14.674Z,4.72
2023-02-11T06:07:43.013Z,4.72
2023-02-11T06:10:10.793Z,4.72
2023-02-11T06:12:38.471Z,4.74
2023-02-11T06:15:06.268Z,4.73
2023-02-11T06:17:33.535Z,4.75
2023-02-11T06:20:01.224Z,4.77
2023-02-11T06:22:27.890Z,4.78
2023-02-11T06:25:01.653Z,4.80
2023-02-11T06:27:28.872Z,4.81
2023-02-11T06:29:55.861Z,4.83
2023-02-11T06:32:42.317Z,4.85
2023-02-11T06:35:11.785Z,4.88
2023-02-11T06:37:39.109Z,4.90
2023-02-11T06:40:08.033Z,4.92
2023-02-11T06:42:34.696Z,4.94
2023-02-11T06:45:01.426Z,4.97
2023-02-11T06:47:28.285Z,4.99
2023-02-11T06:49:55.006Z,5.03
2023-02-11T06:52:21.706Z,5.06
2023-02-11T06:54:48.449Z,5.07
2023-02-11T06:57:16.595Z,5.11
2023-02-11T06:59:43.379Z,5.13
2023-02-11T07:02:10.454Z,5.15
2023-02-11T07:04:37.271Z,5.17
2023-02-11T07:07:04.019Z,5.20
2023-02-11T07:09:30.689Z,5.24
2023-02-11T07:11:57.448Z,5.27
2023-02-11T07:14:25.593Z,5.29
2023-02-11T07:16:52.293Z,5.32
2023-02-11T07:19:19.507Z,5.34
2023-02-11T07:21:46.220Z,5.38
2023-02-11T07:24:13.147Z,5.41
2023-02-11T07:26:40.518Z,5.46
2023-02-11T07:29:07.300Z,5.50
2023-02-11T07:31:35.525Z,5.52
2023-02-11T07:34:02.894Z,5.56
2023-02-11T07:36:31.360Z,5.59
2023-02-11T07:38:58.235Z,5.62
2023-02-11T07:41:26.122Z,5.66
2023-02-11T07:43:53.353Z,5.69
2023-02-11T07:46:21.696Z,5.72
2023-02-11T07:48:50.267Z,5.74
2023-02-11T07:51:18.791Z,5.76
2023-02-11T07:53:46.688Z,5.78
2023-02-11T07:56:15.467Z,5.80
2023-02-11T07:58:42.687Z,5.81
2023-02-11T08:01:11.599Z,5.83
2023-02-11T08:03:38.815Z,5.83
2023-02-11T08:06:08.840Z,5.83
2023-02-11T08:08:35.562Z,5.85
2023-02-11T08:11:06.964Z,5.86
2023-02-11T08:13:33.879Z,5.88
2023-02-11T08:16:00.852Z,5.90
2023-02-11T08:18:27.644Z,5.92
2023-02-11T08:20:54.363Z,5.92
2023-02-11T08:23:22.782Z,5.94
2023-02-11T08:25:49.473Z,5.94
2023-02-11T08:28:16.191Z,5.95
2023-02-11T08:30:43.083Z,5.95
2023-02-11T08:33:09.826Z,5.96
2023-02-11T08:35:36.712Z,5.97
2023-02-11T08:38:03.469Z,5.96
2023-02-11T08:40:31.516Z,5.96
2023-02-11T08:42:58.203Z,5.95
2023-02-11T08:45:25.187Z,5.95
2023-02-11T08:47:52.263Z,5.96
2023-02-11T08:50:19.338Z,5.95
2023-02-11T08:52:46.075Z,5.95
2023-02-11T08:55:12.756Z,5.96
2023-02-11T08:57:40.917Z,5.97
2023-02-11T09:00:08.888Z,5.96
2023-02-11T09:02:35.667Z,5.98
2023-02-11T09:05:02.318Z,5.98
2023-02-11T09:07:29.082Z,5.99
2023-02-11T09:09:55.939Z,6.00
2023-02-11T09:12:22.694Z,6.00
2023-02-11T09:14:50.934Z,6.01
2023-02-11T09:17:17.613Z,6.02
2023-02-11T09:19:44.373Z,6.04
2023-02-11T09:22:11.046Z,6.04
2023-02-11T09:24:37.763Z,6.05
2023-02-11T09:27:05.461Z,6.05
2023-02-11T09:29:32.277Z,6.06
2023-02-11T09:32:00.774Z,6.08
2023-02-11T09:34:27.521Z,6.11
2023-02-11T09:36:54.151Z,6.12
2023-02-11T09:39:20.965Z,6.13
2023-02-11T09:42:20.363Z,6.16
2023-02-11T09:44:47.876Z,6.17
2023-02-11T09:47:25.570Z,6.19
2023-02-11T09:49:57.362Z,6.21
2023-02-11T09:52:33.167Z,6.25
2023-02-11T09:55:02.402Z,6.30
2023-02-11T09:57:32.952Z,6.35
2023-02-11T10:00:00.573Z,6.37
2023-02-11T10:02:40.007Z,6.41
2023-02-11T10:05:35.202Z,6.45
2023-02-11T10:08:08.741Z,6.47
2023-02-11T10:10:47.761Z,6.48
2023-02-11T10:13:35.834Z,6.52
2023-02-11T10:16:14.100Z,6.54
2023-02-11T10:18:54.049Z,6.55
2023-02-11T10:21:29.825Z,6.57
2023-02-11T10:24:00.827Z,6.59
2023-02-11T10:26:30.427Z,6.62
2023-02-11T10:29:01.841Z,6.63
2023-02-11T10:31:38.230Z,6.63
2023-02-11T10:34:09.831Z,6.64
2023-02-11T10:36:38.466Z,6.66
2023-02-11T10:39:12.096Z,6.67
2023-02-11T10:41:44.269Z,6.69
2023-02-11T10:44:21.827Z,6.71
2023-02-11T10:46:50.064Z,6.73
2023-02-11T10:49:35.310Z,6.74
2023-02-11T10:52:22.771Z,6.74
2023-02-11T10:55:01.920Z,6.75
2023-02-11T10:57:32.793Z,6.77
2023-02-11T11:00:02.862Z,6.79
2023-02-11T11:02:32.101Z,6.80
2023-02-11T11:05:03.035Z,6.81
2023-02-11T11:07:31.365Z,6.81
2023-02-11T11:10:01.836Z,6.81
2023-02-11T11:12:36.306Z,6.81
2023-02-11T11:15:15.636Z,6.83
2023-02-11T11:17:42.862Z,6.83
2023-02-11T11:20:21.879Z,6.83
2023-02-11T11:22:49.678Z,6.85
2023-02-11T11:25:28.109Z,6.86
2023-02-11T11:27:58.188Z,6.87
2023-02-11T11:30:31.604Z,6.88
2023-02-11T11:32:58.646Z,6.88
2023-02-11T11:35:28.486Z,6.90
2023-02-11T11:38:01.981Z,6.91
2023-02-11T11:40:31.048Z,6.92
2023-02-11T11:43:07.128Z,6.94
2023-02-11T11:45:34.078Z,6.97
2023-02-11T11:48:06.323Z,6.98
2023-02-11T11:50:37.244Z,6.99
2023-02-11T11:53:11.196Z,7.01
2023-02-11T11:55:42.153Z,7.02
2023-02-11T11:58:15.556Z,7.04
2023-02-11T12:00:47.755Z,7.05
2023-02-11T12:03:46.518Z,7.07
2023-02-11T12:06:29.283Z,7.11
2023-02-11T12:09:09.548Z,7.14
2023-02-11T12:11:52.418Z,7.18
2023-02-11T12:14:28.501Z,7.19
2023-02-11T12:17:02.889Z,7.19
2023-02-11T12:19:56.682Z,7.22
2023-02-11T12:22:38.878Z,7.23
2023-02-11T12:25:27.365Z,7.24
2023-02-11T12:28:07.579Z,7.27
2023-02-11T12:31:00.502Z,7.29
2023-02-11T12:33:44.978Z,7.31
2023-02-11T12:36:22.524Z,7.32
2023-02-11T12:39:07.156Z,7.35
2023-02-11T12:41:56.570Z,7.37
2023-02-11T12:44:33.025Z,7.40
2023-02-11T12:47:09.470Z,7.40
2023-02-11T12:49:54.975Z,7.42
2023-02-11T12:52:34.276Z,7.43
2023-02-11T12:55:09.384Z,7.45
2023-02-11T12:57:39.374Z,7.46
2023-02-11T13:00:13.698Z,7.48
2023-02-11T13:02:48.535Z,7.50
2023-02-11T13:05:25.614Z,7.51
2023-02-11T13:07:56.139Z,7.53
2023-02-11T13:10:30.034Z,7.53
2023-02-11T13:12:59.124Z,7.55
2023-02-11T13:15:26.589Z,7.56
2023-02-11T13:18:00.837Z,7.55
2023-02-11T13:20:35.972Z,7.58
2023-02-11T13:23:11.310Z,7.58
2023-02-11T13:25:46.578Z,7.58
2023-02-11T13:28:32.541Z,7.58
2023-02-11T13:31:00.588Z,7.57
2023-02-11T13:33:32.599Z,7.59
2023-02-11T13:36:23.537Z,7.61
2023-02-11T13:39:19.809Z,7.61
2023-02-11T13:41:50.309Z,7.61
2023-02-11T13:44:26.158Z,7.62
2023-02-11T13:46:59.777Z,7.62
2023-02-11T13:49:32.772Z,7.63
2023-02-11T13:52:02.279Z,7.63
2023-02-11T13:54:33.693Z,7.63
2023-02-11T13:57:33.225Z,7.63
2023-02-11T14:00:01.929Z,7.64
2023-02-11T14:02:34.440Z,7.64
2023-02-11T14:05:22.353Z,7.64
2023-02-11T14:08:21.615Z,7.65
2023-02-11T14:10:50.126Z,7.65
2023-02-11T14:13:24.714Z,7.65
2023-02-11T14:16:04.878Z,7.65
2023-02-11T14:19:00.557Z,7.65
2023-02-11T14:21:34.323Z,7.65
2023-02-11T14:24:38.582Z,7.66
2023-02-11T14:27:07.250Z,7.66
2023-02-11T14:29:43.720Z,7.67
2023-02-11T14:32:23.355Z,7.66
2023-02-11T14:35:00.772Z,7.66
2023-02-11T14:37:39.261Z,7.65
2023-02-11T14:40:17.209Z,7.63
2023-02-11T14:42:44.951Z,7.63
2023-02-11T14:45:19.877Z,7.63
2023-02-11T14:47:52.149Z,7.62
2023-02-11T14:50:24.369Z,7.61
2023-02-11T14:52:52.129Z,7.60
2023-02-11T14:55:29.980Z,7.59
2023-02-11T14:58:15.407Z,7.60
2023-02-11T15:00:55.904Z,7.58
2023-02-11T15:03:28.267Z,7.56
2023-02-11T15:05:57.856Z,7.56
2023-02-11T15:08:24.684Z,7.56
2023-02-11T15:10:54.538Z,7.54
2023-02-11T15:13:24.565Z,7.56
2023-02-11T15:15:57.758Z,7.55
2023-02-11T15:18:32.660Z,7.54
2023-02-11T15:20:59.878Z,7.54
2023-02-11T15:23:29.483Z,7.54
2023-02-11T15:25:56.374Z,7.54
2023-02-11T15:28:25.168Z,7.53
2023-02-11T15:31:02.346Z,7.53
2023-02-11T15:33:29.770Z,7.53
2023-02-11T15:35:58.088Z,7.52
2023-02-11T15:38:24.897Z,7.52
2023-02-11T15:40:54.117Z,7.52
2023-02-11T15:43:21.110Z,7.52
2023-02-11T15:45:58.721Z,7.53
2023-02-11T15:48:35.550Z,7.52
2023-02-11T15:51:08.748Z,7.52
2023-02-11T15:53:39.676Z,7.52
2023-02-11T15:56:14.456Z,7.53
2023-02-11T15:58:43.787Z,7.51
2023-02-11T16:01:11.742Z,7.52
2023-02-11T16:03:42.167Z,7.53
2023-02-11T16:06:20.871Z,7.53
2023-02-11T16:08:59.386Z,7.53
2023-02-11T16:11:29.291Z,7.54
2023-02-11T16:13:56.357Z,7.53
2023-02-11T16:16:26.152Z,7.54
2023-02-11T16:19:04.605Z,7.53
2023-02-11T16:21:34.414Z,7.54
2023-02-11T16:24:02.079Z,7.53
2023-02-11T16:26:32.651Z,7.54
2023-02-11T16:29:07.789Z,7.52
2023-02-11T16:31:37.611Z,7.52
2023-02-11T16:34:13.400Z,7.52
2023-02-11T16:36:41.870Z,7.50
2023-02-11T16:39:08.817Z,7.51
2023-02-11T16:41:35.803Z,7.51
2023-02-11T16:44:02.772Z,7.51
2023-02-11T16:46:30.682Z,7.52
2023-02-11T16:48:58.881Z,7.52
2023-02-11T16:51:27.305Z,7.53
2023-02-11T16:53:54.338Z,7.52
2023-02-11T16:56:21.112Z,7.52
2023-02-11T16:58:47.880Z,7.53
2023-02-11T17:01:14.816Z,7.53
2023-02-11T17:03:41.678Z,7.53
2023-02-11T17:06:10.479Z,7.54
2023-02-11T17:08:38.595Z,7.54
2023-02-11T17:11:05.706Z,7.54
2023-02-11T17:13:33.001Z,7.55
2023-02-11T17:15:59.812Z,7.55
2023-02-11T17:18:26.617Z,7.56
2023-02-11T17:20:53.421Z,7.57
2023-02-11T17:23:20.156Z,7.58
2023-02-11T17:25:55.347Z,7.59
2023-02-11T17:28:22.130Z,7.61
2023-02-11T17:30:48.899Z,7.61
2023-02-11T17:33:15.688Z,7.60
2023-02-11T17:35:42.382Z,7.61
2023-02-11T17:38:09.244Z,7.61
2023-02-11T17:40:36.094Z,7.61
2023-02-11T17:43:04.601Z,7.62
2023-02-11T17:45:31.493Z,7.61
2023-02-11T17:47:58.463Z,7.62
2023-02-11T17:50:27.095Z,7.62
2023-02-11T17:52:55.636Z,7.63
2023-02-11T17:55:22.428Z,7.62
2023-02-11T17:57:49.277Z,7.61
2023-02-11T18:00:18.581Z,7.60
2023-02-11T18:02:45.328Z,7.61
2023-02-11T18:05:12.171Z,7.63
2023-02-11T18:07:39.125Z,7.63
2023-02-11T18:10:07.248Z,7.63
2023-02-11T18:12:34.230Z,7.64
2023-02-11T18:15:01.089Z,7.63
2023-02-11T18:17:29.528Z,7.62
2023-02-11T18:19:57.029Z,7.63
2023-02-11T18:22:24.954Z,7.62
2023-02-11T18:24:52.361Z,7.63
2023-02-11T18:27:19.192Z,7.61
2023-02-11T18:29:46.035Z,7.61
2023-02-11T18:32:13.453Z,7.61
2023-02-11T18:34:42.217Z,7.61
2023-02-11T18:37:08.994Z,7.61
2023-02-11T18:39:35.815Z,7.63
2023-02-11T18:42:02.837Z,7.63
2023-02-11T18:44:30.133Z,7.63
2023-02-11T18:46:57.342Z,7.65
2023-02-11T18:49:24.328Z,7.65
2023-02-11T18:51:52.586Z,7.65
2023-02-11T18:54:19.531Z,7.65
2023-02-11T18:56:46.430Z,7.65
2023-02-11T18:59:13.250Z,7.65
2023-02-11T19:01:40.195Z,7.65
2023-02-11T19:04:07.143Z,7.65
2023-02-11T19:06:35.532Z,7.65
2023-02-11T19:09:06.974Z,7.64
2023-02-11T19:11:34.242Z,7.64
2023-02-11T19:14:04.469Z,7.64
2023-02-11T19:16:31.714Z,7.65
2023-02-11T19:18:58.520Z,7.65
2023-02-11T19:21:25.351Z,7.64
2023-02-11T19:23:52.187Z,7.64
2023-02-11T19:26:23.892Z,7.64
2023-02-11T19:28:50.646Z,7.63
2023-02-11T19:31:17.636Z,7.62
2023-02-11T19:33:45.148Z,7.63
2023-02-11T19:36:12.038Z,7.62
2023-02-11T19:38:38.877Z,7.61
2023-02-11T19:41:06.061Z,7.61
2023-02-11T19:43:34.357Z,7.59
2023-02-11T19:46:01.918Z,7.58
2023-02-11T19:48:28.643Z,7.59
2023-02-11T19:50:55.578Z,7.58
2023-02-11T19:53:22.670Z,7.57
2023-02-11T19:55:50.397Z,7.56
2023-02-11T19:58:17.697Z,7.56
2023-02-11T20:00:45.774Z,7.56
2023-02-11T20:03:12.379Z,7.55
2023-02-11T20:05:40.372Z,7.55
2023-02-11T20:08:07.118Z,7.54
2023-02-11T20:10:34.727Z,7.53
2023-02-11T20:13:01.414Z,7.53
2023-02-11T20:15:28.159Z,7.53
2023-02-11T20:17:56.360Z,7.53
2023-02-11T20:20:23.047Z,7.53
2023-02-11T20:22:51.477Z,7.52
2023-02-11T20:25:18.229Z,7.52
2023-02-11T20:27:44.874Z,7.52
2023-02-11T20:30:12.226Z,7.52
2023-02-11T20:32:39.013Z,7.52
2023-02-11T20:35:08.885Z,7.52
2023-02-11T20:37:35.671Z,7.52
2023-02-11T20:40:03.194Z,7.50
2023-02-11T20:42:29.888Z,7.50
2023-02-11T20:44:56.598Z,7.49
2023-02-11T20:47:23.439Z,7.50
2023-02-11T20:49:50.406Z,7.48
2023-02-11T20:52:18.618Z,7.48
2023-02-11T20:54:45.276Z,7.46
2023-02-11T20:57:12.016Z,7.45
2023-02-11T20:59:38.705Z,7.44
2023-02-11T21:02:05.524Z,7.44
2023-02-11T21:04:32.278Z,7.44
2023-02-11T21:07:01.074Z,7.44
2023-02-11T21:09:32.504Z,7.42
2023-02-11T21:11:59.659Z,7.41
2023-02-11T21:14:28.965Z,7.40
2023-02-11T21:16:55.794Z,7.38
2023-02-11T21:19:22.560Z,7.37
2023-02-11T21:21:49.664Z,7.37
2023-02-11T21:24:16.464Z,7.37
2023-02-11T21:26:44.678Z,7.36
2023-02-11T21:29:11.720Z,7.36
2023-02-11T21:31:38.854Z,7.35
2023-02-11T21:34:06.817Z,7.35
2023-02-11T21:36:33.866Z,7.36
2023-02-11T21:39:00.622Z,7.34
2023-02-11T21:41:27.797Z,7.33
2023-02-11T21:43:57.668Z,7.32
2023-02-11T21:46:24.784Z,7.32
2023-02-11T21:48:51.627Z,7.31
2023-02-11T21:51:21.992Z,7.33
2023-02-11T21:53:52.985Z,7.31
2023-02-11T21:56:19.856Z,7.28
2023-02-11T21:58:46.716Z,7.30
2023-02-11T22:01:17.227Z,7.27
2023-02-11T22:03:45.423Z,7.26
2023-02-11T22:06:14.536Z,7.25
2023-02-11T22:08:41.830Z,7.23
2023-02-11T22:11:11.392Z,7.23
2023-02-11T22:13:38.346Z,7.23
2023-02-11T22:16:07.652Z,7.22
2023-02-11T22:18:36.677Z,7.21
2023-02-11T22:21:05.991Z,7.20
2023-02-11T22:23:33.002Z,7.19
2023-02-11T22:26:04.104Z,7.19
2023-02-11T22:28:30.859Z,7.19
2023-02-11T22:30:58.871Z,7.18
2023-02-11T22:33:27.018Z,7.18
2023-02-11T22:35:59.930Z,7.18
2023-02-11T22:38:27.921Z,7.17
2023-02-11T22:40:54.947Z,7.18
2023-02-11T22:43:21.713Z,7.17
2023-02-11T22:45:49.289Z,7.17
2023-02-11T22:48:16.292Z,7.16
2023-02-11T22:50:43.160Z,7.15
2023-02-11T22:53:11.232Z,7.15
2023-02-11T22:55:37.982Z,7.16
2023-02-11T22:58:04.884Z,7.15
2023-02-11T23:00:37.101Z,7.16
2023-02-11T23:03:04.192Z,7.15
2023-02-11T23:05:37.544Z,7.15
2023-02-11T23:08:04.622Z,7.15
2023-02-11T23:10:34.557Z,7.15
2023-02-11T23:13:01.250Z,7.14
2023-02-11T23:15:27.973Z,7.13
2023-02-11T23:17:54.623Z,7.12
2023-02-11T23:20:21.371Z,7.12
2023-02-11T23:22:48.187Z,7.11
2023-02-11T23:25:15.518Z,7.12
2023-02-11T23:27:43.774Z,7.11
2023-02-11T23:30:11.542Z,7.11
2023-02-11T23:32:38.549Z,7.11
2023-02-11T23:35:05.802Z,7.11
2023-02-11T23:37:32.632Z,7.11
2023-02-11T23:39:59.332Z,7.12
2023-02-11T23:42:26.241Z,7.11
2023-02-11T23:44:54.261Z,7.11
2023-02-11T23:47:21.066Z,7.11
2023-02-11T23:49:47.716Z,7.10
2023-02-11T23:52:14.738Z,7.11
2023-02-11T23:54:41.553Z,7.11
2023-02-11T23:57:08.280Z,7.12
2023-02-11T23:59:35.378Z,7.11
